Time;durP1;ratioP1;P1;durP2;ratioP2;P2;SDS_P1;SDS_P2;PMS_P1;PMS_P2;Temp;Humidity;BMP_temperature;BMP_pressure;BME280_temperature;BME280_humidity;BME280_pressure;Samples;Min_cycle;Max_cycle;Signal;HPM_P1;HPM_P2
2021/08/29 00:00:44;;;;;;;;;0.00;0.00;;;;;25.13;40.90;101442.53;5053938;28;45391;-68
2021/08/29 00:03:10;;;;;;;;;0.00;0.00;;;;;25.14;40.80;101433.41;5053246;28;45425;-69
2021/08/29 00:05:36;;;;;;;;;0.00;0.00;;;;;25.13;41.06;101428.94;5053178;28;45708;-68
2021/08/29 00:08:01;;;;;;;;;0.00;0.00;;;;;25.13;41.35;101428.03;5053776;28;45348;-69
2021/08/29 00:10:27;;;;;;;;;0.00;0.00;;;;;25.11;40.96;101427.22;5053878;28;45581;-68
2021/08/29 00:12:52;;;;;;;;;0.00;0.00;;;;;25.11;40.77;101421.78;5053289;28;45527;-69
2021/08/29 00:15:19;;;;;;;;;0.00;0.00;;;;;25.10;41.19;101422.69;5053303;28;45403;-68
2021/08/29 00:17:45;;;;;;;;;0.00;0.00;;;;;25.09;40.85;101418.22;5053639;28;45493;-68
2021/08/29 00:20:10;;;;;;;;;0.00;0.00;;;;;25.08;40.93;101422.75;5053709;28;45771;-68
2021/08/29 00:22:36;;;;;;;;;0.00;0.00;;;;;25.09;41.15;101420.94;5053216;28;46203;-68
2021/08/29 00:25:01;;;;;;;;;0.00;0.00;;;;;25.09;41.34;101420.94;5053384;28;45568;-68
2021/08/29 00:27:26;;;;;;;;;0.00;0.00;;;;;25.07;41.05;101415.53;5053138;28;45674;-68
2021/08/29 00:29:52;;;;;;;;;0.00;0.00;;;;;25.07;41.07;101415.53;5053407;28;44921;-68
2021/08/29 00:32:17;;;;;;;;;0.00;0.00;;;;;25.05;41.11;101411.09;5051852;28;45375;-68
2021/08/29 00:34:42;;;;;;;;;0.00;0.00;;;;;25.04;41.36;101403.88;5052985;28;45395;-68
2021/08/29 00:37:08;;;;;;;;;0.00;0.00;;;;;25.05;41.28;101411.09;5053555;28;45417;-68
2021/08/29 00:39:35;;;;;;;;;0.00;0.00;;;;;25.06;40.97;101412.88;5053431;28;45846;-67
2021/08/29 00:42:07;;;;;;;;;0.00;0.00;;;;;25.03;41.26;101407.53;5053052;28;45701;-69
2021/08/29 00:44:39;;;;;;;;;0.00;0.00;;;;;25.05;41.25;101411.09;5034582;28;45561;-68
2021/08/29 00:47:08;;;;;;;;;0.00;0.00;;;;;25.04;40.84;101412.03;5052973;28;45385;-68
2021/08/29 00:49:46;;;;;;;;;0.00;0.00;;;;;25.04;41.39;101415.63;5034804;28;45406;-68
2021/08/29 00:52:12;;;;;;;;;0.00;0.00;;;;;25.03;41.17;101413.00;5052624;28;46588;-68
2021/08/29 00:54:38;;;;;;;;;0.00;0.00;;;;;25.02;41.42;101413.91;5052958;28;45404;-68
2021/08/29 00:57:07;;;;;;;;;0.00;0.00;;;;;25.02;41.22;101417.53;5053135;28;45524;-68
2021/08/29 00:59:33;;;;;;;;;0.00;0.00;;;;;25.02;41.16;101408.47;5034601;28;45441;-67
2021/08/29 01:02:06;;;;;;;;;0.00;0.00;;;;;25.01;41.16;101412.16;5055147;28;45986;-67
2021/08/29 01:04:42;;;;;;;;;0.00;0.00;;;;;25.01;41.09;101409.44;5056000;28;45429;-67
2021/08/29 01:07:18;;;;;;;;;0.00;0.00;;;;;24.99;41.46;101401.31;5037761;28;45510;-67
2021/08/29 01:09:43;;;;;;;;;0.00;0.00;;;;;25.01;41.33;101409.44;5056329;28;45659;-67
2021/08/29 01:12:10;;;;;;;;;0.00;0.00;;;;;25.00;41.21;101405.81;5056019;28;45410;-67
2021/08/29 01:14:36;;;;;;;;;0.00;0.00;;;;;24.97;41.12;101405.94;5055958;28;45337;-67
2021/08/29 01:17:04;;;;;;;;;0.00;0.00;;;;;25.00;41.00;101410.38;5056743;28;45457;-67
2021/08/29 01:19:46;;;;;;;;;0.00;0.00;;;;;25.01;41.40;101414.88;5056605;28;45525;-67
2021/08/29 01:22:12;;;;;;;;;0.00;0.00;;;;;25.00;41.11;101411.25;5055426;28;46041;-67
2021/08/29 01:24:40;;;;;;;;;0.00;0.00;;;;;25.01;41.46;101414.88;5053543;28;45467;-67
2021/08/29 01:27:15;;;;;;;;;0.00;0.00;;;;;24.99;41.30;101405.88;5056088;28;45515;-67
2021/08/29 01:29:40;;;;;;;;;0.00;0.00;;;;;25.01;41.14;101404.00;5056001;28;45413;-67
2021/08/29 01:32:08;;;;;;;;;0.00;0.00;;;;;25.01;41.30;101415.75;5054616;28;45481;-67
2021/08/29 01:34:34;;;;;;;;;0.00;0.00;;;;;25.02;41.27;101424.81;5056117;28;45342;-67
2021/08/29 01:37:00;;;;;;;;;0.00;0.00;;;;;25.01;41.18;101415.75;5055608;28;45409;-67
2021/08/29 01:39:26;;;;;;;;;0.00;0.00;;;;;24.99;41.08;101403.16;5055974;28;45493;-67
2021/08/29 01:41:53;;;;;;;;;0.00;0.00;;;;;25.01;41.11;101412.16;5055828;28;45588;-67
2021/08/29 01:44:21;;;;;;;;;0.00;0.00;;;;;25.01;41.24;101417.59;5055389;28;45414;-67
2021/08/29 01:46:46;;;;;;;;;0.00;0.00;;;;;25.01;41.54;101409.44;5055648;28;45493;-67
2021/08/29 01:49:13;;;;;;;;;0.00;0.00;;;;;25.01;41.34;101414.88;5056286;28;45368;-67
2021/08/29 01:51:41;;;;;;;;;0.00;0.00;;;;;25.00;41.40;101402.19;5055207;28;46576;-67
2021/08/29 01:54:06;;;;;;;;;0.00;0.00;;;;;25.00;41.09;101402.19;5055492;28;45459;-67
2021/08/29 01:57:12;;;;;;;;;0.00;0.00;;;;;25.00;41.36;101407.63;5055262;28;45470;-67
2021/08/29 01:59:37;;;;;;;;;0.00;0.00;;;;;25.03;41.23;101418.44;5055572;28;45571;-68
2021/08/29 02:02:04;;;;;;;;;0.00;0.00;;;;;25.02;41.09;101412.06;5037173;28;45437;-67
2021/08/29 02:04:30;;;;;;;;;0.00;0.00;;;;;25.03;40.98;101407.53;5037181;28;45469;-67
2021/08/29 02:07:09;;;;;;;;;0.00;0.00;;;;;25.03;41.29;101415.72;5055079;28;45529;-67
2021/08/29 02:09:39;;;;;;;;;0.00;0.00;;;;;25.01;41.21;101412.16;5037341;28;45473;-67
2021/08/29 02:12:05;;;;;;;;;0.00;0.00;;;;;25.02;41.60;101416.63;5054546;28;45691;-67
2021/08/29 02:14:38;;;;;;;;;0.00;0.00;;;;;25.01;41.24;101420.31;5055045;28;45964;-67
2021/08/29 02:17:04;;;;;;;;;0.00;0.00;;;;;25.02;41.37;101419.34;5055153;28;45495;-67
2021/08/29 02:19:34;;;;;;;;;0.00;0.00;;;;;25.02;41.21;101424.81;5055017;28;45463;-67
2021/08/29 02:21:59;;;;;;;;;0.00;0.00;;;;;25.02;41.33;101424.81;5054986;28;46152;-67
2021/08/29 02:24:28;;;;;;;;;0.00;0.00;;;;;25.00;41.27;101418.53;5036722;28;44780;-67
2021/08/29 02:26:54;;;;;;;;;0.00;0.00;;;;;25.00;41.23;101424.84;5037010;28;45772;-67
2021/08/29 02:29:20;;;;;;;;;0.00;0.00;;;;;25.00;41.42;101423.97;5055667;28;45407;-67
2021/08/29 02:31:49;;;;;;;;;0.00;0.00;;;;;25.00;41.19;101426.69;5053954;28;46359;-67
2021/08/29 02:34:15;;;;;;;;;0.00;0.00;;;;;25.01;41.28;101425.75;5055250;28;45413;-67
2021/08/29 02:36:42;;;;;;;;;0.00;0.00;;;;;25.01;41.40;101426.66;5055135;28;45500;-67
2021/08/29 02:39:10;;;;;;;;;0.00;0.00;;;;;25.01;41.03;101425.75;5055158;28;45476;-67
2021/08/29 02:41:36;;;;;;;;;0.00;0.00;;;;;25.00;41.31;101424.84;5054595;28;46187;-67
2021/08/29 02:44:02;;;;;;;;;0.00;0.00;;;;;25.00;41.38;101418.53;5036835;28;45755;-67
2021/08/29 02:46:28;;;;;;;;;0.00;0.00;;;;;25.01;41.26;101425.75;5054531;28;45306;-68
2021/08/29 02:48:53;;;;;;;;;0.00;0.00;;;;;24.98;41.50;101424.00;5055326;28;45426;-68
2021/08/29 02:51:23;;;;;;;;;0.00;0.00;;;;;24.98;41.20;101415.84;5054643;28;45418;-68
2021/08/29 02:53:48;;;;;;;;;0.00;0.00;;;;;24.99;41.00;101411.31;5055090;28;45511;-68
2021/08/29 02:56:15;;;;;;;;;0.00;0.00;;;;;24.99;41.18;101411.31;5054812;28;45480;-68
2021/08/29 02:58:43;;;;;;;;;0.00;0.00;;;;;24.97;41.07;101413.22;5054985;28;45423;-68
2021/08/29 03:01:09;;;;;;;;;0.00;0.00;;;;;24.98;41.46;101415.84;5054654;28;45464;-68
2021/08/29 03:03:34;;;;;;;;;0.00;0.00;;;;;25.00;41.17;101421.25;5054887;28;45431;-68
2021/08/29 03:06:00;;;;;;;;;0.00;0.00;;;;;25.00;41.29;101413.09;5055057;28;45489;-68
2021/08/29 03:08:25;;;;;;;;;0.00;0.00;;;;;24.99;41.28;101414.03;5054967;28;45426;-69
2021/08/29 03:10:51;;;;;;;;;0.00;0.00;;;;;24.98;41.15;101415.84;5054432;28;45979;-68
2021/08/29 03:13:17;;;;;;;;;0.00;0.00;;;;;24.99;41.29;101414.03;5054610;28;45510;-68
2021/08/29 03:15:43;;;;;;;;;0.00;0.00;;;;;25.00;41.17;101410.38;5036092;28;45504;-69
2021/08/29 03:18:09;;;;;;;;;0.00;0.00;;;;;24.98;41.27;101409.53;5036619;28;45390;-68
2021/08/29 03:20:36;;;;;;;;;0.00;0.00;;;;;24.98;41.38;101409.53;5035868;28;46386;-68
2021/08/29 03:23:02;;;;;;;;;0.00;0.00;;;;;24.97;41.22;101408.66;5053290;28;45319;-68
2021/08/29 03:25:28;;;;;;;;;0.00;0.00;;;;;24.97;41.12;101407.78;5054287;28;45417;-68
2021/08/29 03:27:54;;;;;;;;;0.00;0.00;;;;;24.89;41.25;101386.25;5054716;28;45431;-68
2021/08/29 03:30:20;;;;;;;;;0.00;0.00;;;;;24.98;41.67;101398.66;5054228;28;45491;-68
2021/08/29 03:32:45;;;;;;;;;0.00;0.00;;;;;24.97;41.26;101391.44;5053553;28;45525;-68
2021/08/29 03:35:13;;;;;;;;;0.00;0.00;;;;;24.98;41.33;101398.66;5054649;28;45490;-69
2021/08/29 03:37:40;;;;;;;;;0.00;0.00;;;;;24.98;41.12;101393.19;5036411;28;45950;-68
2021/08/29 03:40:07;;;;;;;;;0.00;0.00;;;;;24.95;41.06;101395.09;5054382;28;45496;-68
2021/08/29 03:42:34;;;;;;;;;0.00;0.00;;;;;24.95;41.31;101395.09;5054128;28;45497;-68
2021/08/29 03:45:02;;;;;;;;;0.00;0.00;;;;;24.93;41.10;101386.09;5054151;28;45338;-68
2021/08/29 03:47:27;;;;;;;;;0.00;0.00;;;;;24.94;41.25;101387.88;5054284;28;45880;-68
2021/08/29 03:49:53;;;;;;;;;0.00;0.00;;;;;24.93;41.36;101391.53;5035923;28;46298;-68
2021/08/29 03:52:21;;;;;;;;;0.00;0.00;;;;;24.93;41.22;101386.09;5054125;28;45468;-68
2021/08/29 03:54:47;;;;;;;;;0.00;0.00;;;;;24.93;41.53;101385.22;5054258;28;45409;-68
2021/08/29 03:57:14;;;;;;;;;0.00;0.00;;;;;24.91;41.55;101382.53;5054087;28;45675;-68
2021/08/29 03:59:40;;;;;;;;;0.00;0.00;;;;;24.91;41.44;101385.25;5053793;28;45416;-68
2021/08/29 04:02:07;;;;;;;;;0.00;0.00;;;;;24.91;41.40;101385.25;5053675;28;45662;-68
2021/08/29 04:04:33;;;;;;;;;0.00;0.00;;;;;24.91;41.46;101389.81;5053814;28;45751;-68
2021/08/29 04:07:04;;;;;;;;;0.00;0.00;;;;;24.90;41.38;101390.75;5053898;28;45513;-68
2021/08/29 04:09:32;;;;;;;;;0.00;0.00;;;;;24.90;41.69;101385.31;5053563;28;45413;-67
2021/08/29 04:11:59;;;;;;;;;0.00;0.00;;;;;24.90;41.42;101386.19;5035551;28;45484;-67
2021/08/29 04:14:25;;;;;;;;;0.00;0.00;;;;;24.90;41.33;101386.19;5053692;28;45443;-67
2021/08/29 04:16:55;;;;;;;;;0.00;0.00;;;;;24.90;41.48;101388.03;5054029;28;45343;-68
2021/08/29 04:19:22;;;;;;;;;0.00;0.00;;;;;24.90;41.01;101390.75;5053878;28;45767;-69
2021/08/29 04:21:48;;;;;;;;;0.00;0.00;;;;;24.89;41.47;101389.88;5053391;28;45485;-67
2021/08/29 04:24:14;;;;;;;;;0.00;0.00;;;;;24.89;41.41;101389.88;5053686;28;45796;-67
2021/08/29 04:26:39;;;;;;;;;0.00;0.00;;;;;24.88;41.32;101392.63;5053741;28;45449;-67
2021/08/29 04:29:05;;;;;;;;;0.00;0.00;;;;;24.88;41.42;101387.19;5053224;28;45593;-68
2021/08/29 04:31:32;;;;;;;;;0.00;0.00;;;;;24.88;41.49;101388.06;5051992;28;45807;-67
2021/08/29 04:34:08;;;;;;;;;0.00;0.00;;;;;24.88;41.71;101390.78;5053540;28;45453;-67
2021/08/29 04:36:38;;;;;;;;;0.00;0.00;;;;;24.89;41.24;101392.59;5057025;28;45750;-67
2021/08/29 04:39:05;;;;;;;;;0.00;0.00;;;;;24.88;41.34;101388.06;5056900;28;48160;-67
2021/08/29 04:41:32;;;;;;;;;0.00;0.00;;;;;24.85;41.11;101388.19;5057180;28;45618;-67
2021/08/29 04:43:59;;;;;;;;;0.00;0.00;;;;;24.88;41.59;101393.50;5057228;28;45407;-68
2021/08/29 04:46:24;;;;;;;;;0.00;0.00;;;;;24.88;41.56;101382.63;5039025;28;45589;-67
2021/08/29 04:48:50;;;;;;;;;0.00;0.00;;;;;24.88;41.48;101393.50;5056395;28;46021;-67
2021/08/29 04:51:15;;;;;;;;;0.00;0.00;;;;;24.88;41.42;101398.94;5057017;28;45728;-67
2021/08/29 04:53:42;;;;;;;;;0.00;0.00;;;;;24.88;41.45;101388.06;5038721;28;45754;-67
2021/08/29 04:56:08;;;;;;;;;0.00;0.00;;;;;24.89;41.53;101389.00;5056594;28;45457;-67
2021/08/29 04:58:33;;;;;;;;;0.00;0.00;;;;;24.88;41.42;101390.78;5056733;28;46361;-68
2021/08/29 05:00:59;;;;;;;;;0.00;0.00;;;;;24.87;41.48;101386.31;5056534;28;45440;-68
2021/08/29 05:03:24;;;;;;;;;0.00;0.00;;;;;24.86;41.65;101395.41;5056670;28;45423;-68
2021/08/29 05:05:51;;;;;;;;;0.00;0.00;;;;;24.86;41.61;101395.41;5056775;28;45435;-68
2021/08/29 05:08:16;;;;;;;;;0.00;0.00;;;;;24.87;41.42;101397.19;5037974;28;46193;-68
2021/08/29 05:10:42;;;;;;;;;0.00;0.00;;;;;24.88;41.40;101401.69;5056397;28;45390;-67
2021/08/29 05:13:07;;;;;;;;;0.00;0.00;;;;;24.87;41.50;101399.91;5056710;28;45397;-68
2021/08/29 05:15:33;;;;;;;;;0.00;0.00;;;;;24.87;41.10;101401.75;5056706;28;45418;-68
2021/08/29 05:18:00;;;;;;;;;0.00;0.00;;;;;24.86;41.39;101398.13;5037953;28;47953;-68
2021/08/29 05:20:26;;;;;;;;;0.00;0.00;;;;;24.86;41.49;101403.56;5053046;28;45337;-67
2021/08/29 05:22:51;;;;;;;;;0.00;0.00;;;;;24.81;41.79;101397.41;5056346;28;45425;-67
2021/08/29 05:25:17;;;;;;;;;0.00;0.00;;;;;24.83;41.55;101400.09;5038481;28;45481;-67
2021/08/29 05:27:42;;;;;;;;;0.00;0.00;;;;;24.83;41.55;101406.41;5056039;28;45906;-67
2021/08/29 05:30:09;;;;;;;;;0.00;0.00;;;;;24.85;41.56;101407.25;5056108;28;45502;-67
2021/08/29 05:32:34;;;;;;;;;0.00;0.00;;;;;24.83;41.57;101406.41;5054836;28;45509;-67
2021/08/29 05:35:00;;;;;;;;;0.00;0.00;;;;;24.82;41.60;101403.72;5056023;28;45537;-67
2021/08/29 05:37:25;;;;;;;;;0.00;0.00;;;;;24.83;41.70;101406.41;5056233;28;45890;-67
2021/08/29 05:39:50;;;;;;;;;0.00;0.00;;;;;24.85;41.68;101409.97;5055931;28;45473;-67
2021/08/29 05:42:17;;;;;;;;;0.00;0.00;;;;;24.82;41.83;101404.63;5038094;28;45460;-67
2021/08/29 05:44:42;;;;;;;;;0.00;0.00;;;;;24.82;41.36;101398.28;5056288;28;45337;-67
2021/08/29 05:47:08;;;;;;;;;0.00;0.00;;;;;24.83;41.69;101403.69;5055074;28;45918;-67
2021/08/29 05:49:34;;;;;;;;;0.00;0.00;;;;;24.83;41.62;101406.41;5055824;28;45378;-67
2021/08/29 05:51:59;;;;;;;;;0.00;0.00;;;;;24.85;41.60;101409.97;5055948;28;45393;-67
2021/08/29 05:54:24;;;;;;;;;0.00;0.00;;;;;24.85;41.29;101403.63;5038208;28;45395;-67
2021/08/29 05:56:50;;;;;;;;;0.00;0.00;;;;;24.85;41.67;101404.53;5055969;28;46044;-67
2021/08/29 05:59:15;;;;;;;;;0.00;0.00;;;;;24.79;41.01;101385.69;5037805;28;45779;-67
2021/08/29 06:01:41;;;;;;;;;0.00;0.00;;;;;24.87;41.52;101405.34;5037351;28;45427;-67
2021/08/29 06:04:06;;;;;;;;;0.00;0.00;;;;;24.87;41.52;101405.34;5056013;28;45508;-67
2021/08/29 06:06:34;;;;;;;;;0.00;0.00;;;;;24.87;41.54;101397.19;5055361;28;45501;-67
2021/08/29 06:09:01;;;;;;;;;0.00;0.00;;;;;24.88;41.27;101398.94;5056219;28;45425;-69
2021/08/29 06:11:26;;;;;;;;;0.00;0.00;;;;;24.87;41.46;101401.75;5055819;28;45430;-67
2021/08/29 06:13:52;;;;;;;;;0.00;0.00;;;;;24.88;41.53;101404.41;5037721;28;45383;-68
2021/08/29 06:16:19;;;;;;;;;0.00;0.00;;;;;24.89;41.35;101399.88;5055359;28;45473;-67
2021/08/29 06:18:44;;;;;;;;;0.00;0.00;;;;;24.88;41.40;101409.84;5055326;28;45397;-67
2021/08/29 06:21:09;;;;;;;;;0.00;0.00;;;;;24.89;41.30;101408.91;5056066;28;45762;-67
2021/08/29 06:23:35;;;;;;;;;0.00;0.00;;;;;24.88;41.54;101400.78;5055749;28;45373;-67
2021/08/29 06:26:00;;;;;;;;;0.00;0.00;;;;;24.89;41.39;101405.31;5055616;28;45718;-67
2021/08/29 06:28:26;;;;;;;;;0.00;0.00;;;;;24.89;41.37;101408.03;5055390;28;45493;-67
2021/08/29 06:30:51;;;;;;;;;0.00;0.00;;;;;24.87;41.54;101399.91;5035992;28;45619;-67
2021/08/29 06:33:16;;;;;;;;;0.00;0.00;;;;;24.88;41.31;101406.25;5055666;28;45481;-68
2021/08/29 06:35:42;;;;;;;;;0.00;0.00;;;;;24.88;41.50;101401.69;5037298;28;45903;-67
2021/08/29 06:38:07;;;;;;;;;0.00;0.00;;;;;24.90;41.37;101412.50;5055029;28;45467;-67
2021/08/29 06:40:39;;;;;;;;;0.33;0.00;;;;;24.90;41.38;101407.94;5054897;28;45795;-68
2021/08/29 06:43:04;;;;;;;;;0.00;0.00;;;;;24.90;41.32;101405.22;5055284;28;45524;-68
2021/08/29 06:45:29;;;;;;;;;0.00;0.00;;;;;24.92;41.46;101407.91;5054842;28;45367;-68
2021/08/29 06:47:56;;;;;;;;;0.00;0.00;;;;;24.92;41.49;101406.06;5036953;28;45818;-68
2021/08/29 06:50:28;;;;;;;;;0.00;0.00;;;;;24.92;41.32;101407.91;5055500;28;45785;-68
2021/08/29 06:52:53;;;;;;;;;0.00;0.00;;;;;24.94;41.34;101415.09;5055411;28;45417;-68
2021/08/29 06:55:18;;;;;;;;;0.00;0.00;;;;;24.96;41.15;101423.19;5054813;28;45554;-68
2021/08/29 06:57:43;;;;;;;;;0.00;0.00;;;;;24.98;41.43;101420.41;5054564;28;45491;-68
2021/08/29 07:00:09;;;;;;;;;0.00;0.00;;;;;25.00;41.34;101427.56;5055331;28;45406;-68
2021/08/29 07:02:35;;;;;;;;;0.00;0.00;;;;;25.00;41.32;101419.41;5054874;28;45497;-68
2021/08/29 07:05:00;;;;;;;;;0.00;0.00;;;;;24.99;41.11;101417.66;5054635;28;45916;-68
2021/08/29 07:07:25;;;;;;;;;0.00;0.00;;;;;25.03;41.30;101413.00;5054536;28;45468;-67
2021/08/29 07:09:51;;;;;;;;;0.00;0.00;;;;;25.04;41.12;101422.91;5055053;28;45436;-67
2021/08/29 07:12:16;;;;;;;;;0.00;0.00;;;;;25.06;41.37;101419.19;5055074;28;45409;-67
2021/08/29 07:14:42;;;;;;;;;0.00;0.00;;;;;25.04;41.05;101412.91;5054309;28;45500;-68
2021/08/29 07:17:07;;;;;;;;;0.00;0.00;;;;;25.06;41.41;101416.47;5036442;28;45475;-68
2021/08/29 07:19:33;;;;;;;;;0.00;0.00;;;;;25.08;41.35;101410.97;5054731;28;45932;-68
2021/08/29 07:21:58;;;;;;;;;0.00;0.00;;;;;25.08;41.09;101411.84;5054755;28;45508;-68
2021/08/29 07:24:25;;;;;;;;;0.00;0.00;;;;;25.10;41.14;101414.53;5054797;28;45537;-68
2021/08/29 07:26:50;;;;;;;;;0.00;0.00;;;;;25.10;40.84;101414.53;5046177;28;45741;-68
2021/08/29 07:29:23;;;;;;;;;0.00;0.00;;;;;25.11;41.15;101419.06;5034703;28;45452;-68
2021/08/29 07:31:55;;;;;;;;;0.00;0.00;;;;;25.11;41.07;101416.31;5033390;28;45456;-68
2021/08/29 07:34:20;;;;;;;;;0.00;0.00;;;;;25.11;41.25;101416.31;5032915;28;46967;-67
2021/08/29 07:36:46;;;;;;;;;0.00;0.00;;;;;25.12;41.19;101418.09;5034683;28;45508;-68
2021/08/29 07:39:11;;;;;;;;;0.00;0.00;;;;;25.13;40.88;101415.31;5034560;28;45426;-68
2021/08/29 07:41:36;;;;;;;;;0.00;0.00;;;;;25.15;41.17;101420.72;5034908;28;45485;-68
2021/08/29 07:44:02;;;;;;;;;0.00;0.00;;;;;25.16;41.09;101419.75;5034444;28;45440;-68
2021/08/29 07:46:29;;;;;;;;;0.00;0.00;;;;;25.14;40.83;101417.06;5034392;28;45417;-68
2021/08/29 07:48:54;;;;;;;;;0.00;0.00;;;;;25.19;41.02;101424.19;5034144;28;45447;-67
2021/08/29 07:51:20;;;;;;;;;0.00;0.00;;;;;25.19;40.97;101425.09;5034258;28;45456;-67
2021/08/29 07:53:45;;;;;;;;;0.00;0.00;;;;;25.19;40.87;101427.81;5033712;28;46498;-68
2021/08/29 07:56:11;;;;;;;;;0.00;0.00;;;;;25.18;40.86;101415.16;5032542;28;45484;-68
2021/08/29 07:58:36;;;;;;;;;0.00;0.00;;;;;25.19;41.10;101414.22;5032730;28;45498;-68
2021/08/29 08:01:03;;;;;;;;;0.00;0.00;;;;;25.22;41.18;101422.28;5034290;28;44748;-67
2021/08/29 08:03:29;;;;;;;;;0.00;0.00;;;;;25.22;41.02;101419.56;5033862;28;45504;-67
2021/08/29 08:05:54;;;;;;;;;0.00;0.00;;;;;25.23;40.92;101424.09;5033716;28;45448;-68
2021/08/29 08:08:20;;;;;;;;;0.00;0.00;;;;;25.23;40.99;101415.00;5032410;28;44849;-68
2021/08/29 08:10:45;;;;;;;;;0.00;0.00;;;;;25.24;40.89;101423.13;5035351;28;45369;-68
2021/08/29 08:13:11;;;;;;;;;0.00;0.00;;;;;25.24;40.63;101422.25;5037719;28;45498;-68
2021/08/29 08:15:37;;;;;;;;;0.00;0.00;;;;;25.25;41.00;101424.91;5037667;28;45469;-68
2021/08/29 08:18:02;;;;;;;;;0.00;0.00;;;;;25.25;40.83;101424.91;5037711;28;45983;-68
2021/08/29 08:20:28;;;;;;;;;0.00;0.00;;;;;25.26;40.69;101423.94;5037099;28;45467;-68
2021/08/29 08:22:53;;;;;;;;;0.00;0.00;;;;;25.25;40.92;101411.31;5037001;28;45959;-68
2021/08/29 08:25:19;;;;;;;;;0.00;0.00;;;;;25.27;40.90;101416.66;5035874;28;45546;-68
2021/08/29 08:27:45;;;;;;;;;0.00;0.00;;;;;25.26;40.85;101426.69;5036917;28;45518;-68
2021/08/29 08:30:11;;;;;;;;;0.00;0.00;;;;;25.27;40.68;101422.09;5037443;28;45428;-68
2021/08/29 08:32:43;;;;;;;;;0.00;0.00;;;;;25.27;40.41;101417.56;5034429;28;46911;-68
2021/08/29 08:35:09;;;;;;;;;0.00;0.00;;;;;25.27;40.94;101412.13;5037304;28;45464;-68
2021/08/29 08:37:35;;;;;;;;;0.00;0.00;;;;;25.28;40.62;101415.72;5037245;28;45449;-68
2021/08/29 08:40:00;;;;;;;;;0.00;0.00;;;;;25.29;40.58;101420.25;5037559;28;45819;-68
2021/08/29 08:42:26;;;;;;;;;0.00;0.00;;;;;25.27;40.55;101425.75;5036956;28;46385;-68
2021/08/29 08:44:52;;;;;;;;;0.00;0.00;;;;;25.27;40.78;101428.47;5037216;28;45204;-68
2021/08/29 08:47:20;;;;;;;;;0.00;0.00;;;;;25.28;40.70;101423.91;5036757;28;45449;-68
2021/08/29 08:49:45;;;;;;;;;0.00;0.00;;;;;25.27;40.74;101417.56;5037258;28;45389;-68
2021/08/29 08:52:20;;;;;;;;;0.00;0.00;;;;;25.30;40.65;101422.00;5036648;28;45356;-67
2021/08/29 08:54:47;;;;;;;;;0.00;0.00;;;;;25.30;40.96;101417.44;5036854;28;45535;-67
2021/08/29 08:57:17;;;;;;;;;0.00;0.00;;;;;25.30;40.93;101422.91;5036828;28;45508;-67
2021/08/29 08:59:47;;;;;;;;;0.00;0.00;;;;;25.32;40.78;101425.56;5036754;28;45427;-68
2021/08/29 09:02:13;;;;;;;;;0.00;0.00;;;;;25.32;40.59;101426.44;5036307;28;45458;-67
2021/08/29 09:04:40;;;;;;;;;0.00;0.00;;;;;25.32;41.02;101422.84;5036625;28;45743;-67
2021/08/29 09:07:07;;;;;;;;;0.00;0.00;;;;;25.28;40.53;101407.56;5036684;28;45437;-67
2021/08/29 09:09:34;;;;;;;;;0.00;0.00;;;;;25.35;40.90;101422.75;5035602;28;45464;-67
2021/08/29 09:11:59;;;;;;;;;0.00;0.00;;;;;25.37;40.87;101419.94;5036352;28;46048;-67
2021/08/29 09:14:38;;;;;;;;;0.00;0.00;;;;;25.38;40.67;101414.44;5036305;28;45418;-67
2021/08/29 09:17:03;;;;;;;;;0.00;0.00;;;;;25.38;40.67;101419.00;5036378;28;45874;-67
2021/08/29 09:19:30;;;;;;;;;0.00;0.00;;;;;25.38;40.42;101411.72;5035044;28;45609;-67
2021/08/29 09:21:58;;;;;;;;;0.00;0.00;;;;;25.39;40.41;101420.78;5035139;28;46060;-67
2021/08/29 09:24:28;;;;;;;;;0.00;0.00;;;;;25.40;40.55;101418.00;5036429;28;45378;-67
2021/08/29 09:26:59;;;;;;;;;0.00;0.00;;;;;25.39;40.85;101412.59;5036344;28;45528;-67
2021/08/29 09:29:25;;;;;;;;;0.00;0.00;;;;;25.41;40.38;101416.16;5036390;28;45421;-67
2021/08/29 09:31:51;;;;;;;;;0.00;0.00;;;;;25.42;40.69;101417.97;5037248;28;45430;-67
2021/08/29 09:34:20;;;;;;;;;0.00;0.00;;;;;25.42;40.57;101417.97;5036200;28;45434;-67
2021/08/29 09:36:49;;;;;;;;;0.00;0.00;;;;;25.40;40.16;101409.84;5036205;28;45482;-67
2021/08/29 09:39:20;;;;;;;;;0.00;0.00;;;;;25.43;40.71;101411.53;5036656;28;45448;-67
2021/08/29 09:41:46;;;;;;;;;0.00;0.00;;;;;25.43;40.29;101417.91;5036584;28;45723;-67
2021/08/29 09:44:20;;;;;;;;;0.00;0.00;;;;;25.43;40.46;101412.47;5036011;28;45599;-67
2021/08/29 09:46:58;;;;;;;;;0.00;0.00;;;;;25.44;40.44;101413.34;5035974;28;45731;-67
2021/08/29 09:49:25;;;;;;;;;0.00;0.00;;;;;25.44;40.45;101410.63;5036247;28;45402;-67
2021/08/29 09:51:51;;;;;;;;;0.00;0.00;;;;;25.45;40.31;101406.94;5034664;28;47574;-67
2021/08/29 09:54:41;;;;;;;;;0.00;0.00;;;;;25.46;40.48;101406.00;5035782;28;45779;-67
2021/08/29 09:57:10;;;;;;;;;0.00;0.00;;;;;25.45;40.20;101405.13;5036081;28;45467;-67
2021/08/29 09:59:44;;;;;;;;;0.00;0.00;;;;;25.47;40.48;101405.03;5035962;28;45355;-67
2021/08/29 10:02:12;;;;;;;;;0.00;0.00;;;;;25.47;40.45;101399.59;5035123;28;45429;-67
2021/08/29 10:04:41;;;;;;;;;0.00;0.00;;;;;25.49;40.20;101401.34;5035592;28;45613;-68
2021/08/29 10:07:15;;;;;;;;;0.00;0.00;;;;;25.51;40.43;101399.44;5035782;28;45472;-67
2021/08/29 10:09:44;;;;;;;;;0.00;0.00;;;;;25.52;40.46;101406.66;5034159;28;45787;-67
2021/08/29 10:12:10;;;;;;;;;0.00;0.00;;;;;25.51;40.63;101398.53;5035552;28;46455;-67
2021/08/29 10:14:37;;;;;;;;;0.00;0.00;;;;;25.53;40.46;101402.09;5035840;28;45431;-67
2021/08/29 10:17:03;;;;;;;;;0.00;0.00;;;;;25.55;40.51;101405.63;5036047;28;45456;-67
2021/08/29 10:19:30;;;;;;;;;0.00;0.00;;;;;25.55;40.36;101409.28;5036134;28;45433;-67
2021/08/29 10:21:57;;;;;;;;;0.00;0.00;;;;;25.56;40.45;101407.44;5035787;28;45796;-67
2021/08/29 10:24:23;;;;;;;;;0.00;0.00;;;;;25.53;40.70;101404.81;5035611;28;45464;-68
2021/08/29 10:26:54;;;;;;;;;0.00;0.00;;;;;25.55;40.15;101412.00;5035633;28;45833;-67
2021/08/29 10:29:25;;;;;;;;;0.00;0.00;;;;;25.56;40.52;101410.16;5035491;28;45500;-67
2021/08/29 10:32:00;;;;;;;;;0.00;0.00;;;;;25.53;40.54;101402.09;5033797;28;46025;-67
2021/08/29 10:34:27;;;;;;;;;0.00;0.00;;;;;25.57;40.44;101398.28;5034700;28;45537;-67
2021/08/29 10:36:54;;;;;;;;;0.00;0.00;;;;;25.58;40.58;101407.38;5035113;28;45520;-68
2021/08/29 10:39:20;;;;;;;;;0.00;0.00;;;;;25.54;40.48;101403.88;5035118;28;45363;-67
2021/08/29 10:41:46;;;;;;;;;0.00;0.00;;;;;25.59;40.34;101415.47;5033486;28;47244;-67
2021/08/29 10:44:13;;;;;;;;;0.00;0.00;;;;;25.59;40.08;101407.28;5035526;28;45446;-68
2021/08/29 10:46:44;;;;;;;;;0.00;0.00;;;;;25.59;40.06;101401.84;5034934;28;45489;-67
2021/08/29 10:49:11;;;;;;;;;0.00;0.00;;;;;25.60;39.94;101403.63;5035210;28;45373;-67
2021/08/29 10:51:36;;;;;;;;;0.00;0.00;;;;;25.60;40.20;101397.31;5035034;28;46156;-68
2021/08/29 10:54:11;;;;;;;;;0.00;0.00;;;;;25.59;40.09;101395.53;5034701;28;45771;-67
2021/08/29 10:56:37;;;;;;;;;0.00;0.00;;;;;25.61;40.41;101393.63;5034857;28;45404;-67
2021/08/29 10:59:08;;;;;;;;;0.00;0.00;;;;;25.63;40.36;101381.75;5033833;28;45827;-68
2021/08/29 11:01:41;;;;;;;;;0.00;0.00;;;;;25.57;40.14;101376.50;5034634;28;46835;-67
2021/08/29 11:04:22;;;;;;;;;0.00;0.00;;;;;25.66;40.11;101378.00;5034866;28;45484;-67
2021/08/29 11:06:58;;;;;;;;;0.00;0.00;;;;;25.68;40.13;101392.47;5034589;28;45498;-67
2021/08/29 11:09:36;;;;;;;;;0.00;0.00;;;;;25.67;40.37;101377.97;5033117;28;45532;-68
2021/08/29 11:12:03;;;;;;;;;0.00;0.00;;;;;25.68;40.21;101379.72;5034381;28;47178;-67
2021/08/29 11:14:40;;;;;;;;;0.00;0.00;;;;;25.70;40.04;101383.25;5034488;28;45468;-67
2021/08/29 11:17:18;;;;;;;;;0.00;0.00;;;;;25.71;39.96;101373.25;5034483;28;44888;-68
2021/08/29 11:19:46;;;;;;;;;0.00;0.00;;;;;25.73;39.88;101380.44;5033506;28;45398;-67
2021/08/29 11:22:17;;;;;;;;;0.00;0.00;;;;;25.73;39.94;101372.25;5034449;28;45480;-67
2021/08/29 11:25:09;;;;;;;;;0.00;0.00;;;;;25.76;39.91;101376.69;5034175;28;45342;-69